F/V Moorea — FMIT — position and weather

sailwx.info

Track history (hours):
 
Tides and Currents Weather Stations Pressure Air Temp Water Temp Dewpoint Dewpoint Depression Visibility Wind Speed Wind Dir Waves Ship Positions

F/V Moorea

Last reported at 2017-Jan-16 06:33 UTC. Time now 2017-Jan-17 21:26 UTC.
Position N 47°05' W 002°39'.

Length 18 m.

Type: Fishing. MMSI: 228239900.

Date/timePositionNaut miles runAvg speedWind from/ knotsBaromVisibWave heightAir tempDewpointWater temp
2017-Jan-16 06:33N 47°05' W 002°39'10 9.8
2017-Jan-16 05:33N 47°14' W 002°38'  
2017-Jan-12 18:33N 47°18' W 002°31'8 7.6
2017-Jan-12 17:33N 47°17' W 002°42'9 8.8
2017-Jan-12 16:33N 47°12' W 002°53'3 3.3
2017-Jan-12 15:33N 47°11' W 002°58'3 3.4
2017-Jan-12 14:33N 47°09' W 003°02'2 2.2
2017-Jan-12 13:33N 47°07' W 002°60'1 1.0
2017-Jan-12 12:33N 47°08' W 002°59'3 3.2
2017-Jan-12 11:33N 47°09' W 003°04'3 3.3
2017-Jan-12 10:33N 47°05' W 003°03'3 3.4
2017-Jan-12 09:33N 47°02' W 003°03'3 3.3
2017-Jan-12 08:33N 46°59' W 003°01'3 2.9
2017-Jan-12 07:33N 46°57' W 002°57'3 3.5
2017-Jan-12 06:33N 46°58' W 002°52'4 3.3
2017-Jan-12 05:27N 46°59' W 002°47'5 2.7
2017-Jan-12 03:28N 46°56' W 002°41'5 1.7
2017-Jan-12 00:27N 46°58' W 002°48'3 1.9
2017-Jan-11 23:04N 46°57' W 002°44'6 3.2
2017-Jan-11 21:12N 46°52' W 002°41'2 3.0
2017-Jan-11 20:33N 46°51' W 002°38'3 1.0
2017-Jan-11 17:30N 46°53' W 002°41'3 2.6
2017-Jan-11 16:29N 46°56' W 002°42'9 3.1
2017-Jan-11 13:33N 46°60' W 002°54'3 3.4
2017-Jan-11 12:33N 47°01' W 002°58'3 2.6
2017-Jan-11 11:33N 47°02' W 003°02'3 2.8
2017-Jan-11 10:33N 46°59' W 003°00'3 2.5
2017-Jan-11 09:30N 46°57' W 002°58'3 2.9
2017-Jan-11 08:33N 46°58' W 002°54'3 0.1
2017-Jan-10 10:33N 46°60' W 002°50'3 3.2
2017-Jan-10 09:33N 47°01' W 002°54'2 1.5
2017-Jan-10 08:33N 47°01' W 002°52'3 2.2
2017-Jan-10 07:21N 46°59' W 002°53'2 2.9
2017-Jan-10 06:33N 47°01' W 002°56'3 3.1
2017-Jan-10 05:33N 47°03' W 002°52'10 9.6
2017-Jan-10 04:33N 47°10' W 002°44'10 9.8
2017-Jan-10 03:33N 47°18' W 002°35'3 0.9
2017-Jan-10 00:31N 47°18' W 002°31'3 2.6
2017-Jan-09 23:33N 47°18' W 002°34'10 9.8
2017-Jan-09 22:33N 47°10' W 002°43'10 5.2
2017-Jan-09 20:33N 47°02' W 002°52'4 0.7
2017-Jan-09 14:33N 46°58' W 002°52'3 2.7
2017-Jan-09 13:30N 46°58' W 002°56'2 1.9
2017-Jan-09 12:33N 46°59' W 002°54'3 3.2
2017-Jan-09 11:33N 47°02' W 002°56'2 2.2
2017-Jan-09 10:33N 47°04' W 002°55'3 2.8
2017-Jan-09 09:33N 47°02' W 002°53'3 2.8
2017-Jan-09 08:33N 47°00' W 002°49'3 2.7
2017-Jan-09 07:33N 47°01' W 002°46'4 0.3
2017-Jan-08 16:06N 46°57' W 002°48'2 2.8
2017-Jan-08 15:33N 46°59' W 002°50'3 3.0
2017-Jan-08 14:33N 47°01' W 002°52'3 2.8
2017-Jan-08 13:33N 47°02' W 002°56'3 3.0
2017-Jan-08 12:33N 47°04' W 003°00'3 3.0
2017-Jan-08 11:33N 47°07' W 003°02'2 1.8
2017-Jan-08 10:33N 47°08' W 003°04'3 3.2
2017-Jan-08 09:33N 47°05' W 003°03'3 2.9
2017-Jan-08 08:33N 47°02' W 002°60'2 1.5
2017-Jan-08 07:15N 47°02' W 003°03'2 3.2
2017-Jan-08 06:33N 46°60' W 003°02'3 2.8
2017-Jan-08 05:33N 46°59' W 002°58'3 3.2
2017-Jan-08 04:33N 46°59' W 002°53'2 1.9
2017-Jan-08 03:33N 47°01' W 002°51'3 2.9
2017-Jan-08 02:33N 47°03' W 002°54'3 2.8
2017-Jan-08 01:33N 47°04' W 002°58'3 3.0
2017-Jan-08 00:30N 47°04' W 003°02'2 2.6
2017-Jan-07 23:33N 47°02' W 003°03'3 3.0
2017-Jan-07 22:33N 46°59' W 003°01'3 2.8
2017-Jan-07 21:33N 46°57' W 002°58'3 3.0
2017-Jan-07 20:33N 46°57' W 002°54'11 4.6
2017-Jan-07 18:09N 46°47' W 003°01'8 2.9
2017-Jan-07 15:33N 46°49' W 003°12'4 1.8
2017-Jan-07 13:26N 46°50' W 003°17'6 2.7
2017-Jan-07 11:05N 46°48' W 003°09'2 3.2
2017-Jan-07 10:30N 46°48' W 003°06'3 2.9
2017-Jan-07 09:30N 46°46' W 003°03'3 3.0
2017-Jan-07 08:33N 46°44' W 002°59'8 2.5
2017-Jan-07 05:27N 46°39' W 002°51'3 2.9
2017-Jan-07 04:32N 46°41' W 002°53'3 2.7
2017-Jan-07 03:32N 46°43' W 002°50'4 1.7
2017-Jan-07 01:21N 46°40' W 002°52'2 2.8
2017-Jan-07 00:29N 46°42' W 002°53'3 2.6
2017-Jan-06 23:31N 46°43' W 002°49'2 0.7
2017-Jan-06 20:25N 46°42' W 002°53'2 2.4
2017-Jan-06 19:25N 46°41' W 002°50'2 1.2
2017-Jan-06 17:30N 46°42' W 002°53'2 2.3
2017-Jan-06 16:29N 46°41' W 002°50'1 1.1
2017-Jan-06 15:33N 46°42' W 002°49'7 3.0
2017-Jan-06 13:15N 46°37' W 002°42'3 3.2
2017-Jan-06 12:25N 46°35' W 002°39'  
Track history (hours):
 
Tides and Currents Weather Stations Pressure Air Temp Water Temp Dewpoint Dewpoint Depression Visibility Wind Speed Wind Dir Waves Ship Positions

F/V Moorea

Last reported at 2017-Jan-16 06:33 UTC. Time now 2017-Jan-17 21:26 UTC.
Position N 47°05' W 002°39'.

Length 18 m.

Type: Fishing. MMSI: 228239900.

Date/timePositionNaut miles runAvg speedWind from/ knotsBaromVisibWave heightAir tempDewpointWater temp
2017-Jan-16 06:33N 47°05' W 002°39'10 9.8
2017-Jan-16 05:33N 47°14' W 002°38'  
2017-Jan-12 18:33N 47°18' W 002°31'8 7.6
2017-Jan-12 17:33N 47°17' W 002°42'9 8.8
2017-Jan-12 16:33N 47°12' W 002°53'3 3.3
2017-Jan-12 15:33N 47°11' W 002°58'3 3.4
2017-Jan-12 14:33N 47°09' W 003°02'2 2.2
2017-Jan-12 13:33N 47°07' W 002°60'1 1.0
2017-Jan-12 12:33N 47°08' W 002°59'3 3.2
2017-Jan-12 11:33N 47°09' W 003°04'3 3.3
2017-Jan-12 10:33N 47°05' W 003°03'3 3.4
2017-Jan-12 09:33N 47°02' W 003°03'3 3.3
2017-Jan-12 08:33N 46°59' W 003°01'3 2.9
2017-Jan-12 07:33N 46°57' W 002°57'3 3.5
2017-Jan-12 06:33N 46°58' W 002°52'4 3.3
2017-Jan-12 05:27N 46°59' W 002°47'5 2.7
2017-Jan-12 03:28N 46°56' W 002°41'5 1.7
2017-Jan-12 00:27N 46°58' W 002°48'3 1.9
2017-Jan-11 23:04N 46°57' W 002°44'6 3.2
2017-Jan-11 21:12N 46°52' W 002°41'2 3.0
2017-Jan-11 20:33N 46°51' W 002°38'3 1.0
2017-Jan-11 17:30N 46°53' W 002°41'3 2.6
2017-Jan-11 16:29N 46°56' W 002°42'9 3.1
2017-Jan-11 13:33N 46°60' W 002°54'3 3.4
2017-Jan-11 12:33N 47°01' W 002°58'3 2.6
2017-Jan-11 11:33N 47°02' W 003°02'3 2.8
2017-Jan-11 10:33N 46°59' W 003°00'3 2.5
2017-Jan-11 09:30N 46°57' W 002°58'3 2.9
2017-Jan-11 08:33N 46°58' W 002°54'3 0.1
2017-Jan-10 10:33N 46°60' W 002°50'3 3.2
2017-Jan-10 09:33N 47°01' W 002°54'2 1.5
2017-Jan-10 08:33N 47°01' W 002°52'3 2.2
2017-Jan-10 07:21N 46°59' W 002°53'2 2.9
2017-Jan-10 06:33N 47°01' W 002°56'3 3.1
2017-Jan-10 05:33N 47°03' W 002°52'10 9.6
2017-Jan-10 04:33N 47°10' W 002°44'10 9.8
2017-Jan-10 03:33N 47°18' W 002°35'3 0.9
2017-Jan-10 00:31N 47°18' W 002°31'3 2.6
2017-Jan-09 23:33N 47°18' W 002°34'10 9.8
2017-Jan-09 22:33N 47°10' W 002°43'10 5.2
2017-Jan-09 20:33N 47°02' W 002°52'4 0.7
2017-Jan-09 14:33N 46°58' W 002°52'3 2.7
2017-Jan-09 13:30N 46°58' W 002°56'2 1.9
2017-Jan-09 12:33N 46°59' W 002°54'3 3.2
2017-Jan-09 11:33N 47°02' W 002°56'2 2.2
2017-Jan-09 10:33N 47°04' W 002°55'3 2.8
2017-Jan-09 09:33N 47°02' W 002°53'3 2.8
2017-Jan-09 08:33N 47°00' W 002°49'3 2.7
2017-Jan-09 07:33N 47°01' W 002°46'4 0.3
2017-Jan-08 16:06N 46°57' W 002°48'2 2.8
2017-Jan-08 15:33N 46°59' W 002°50'3 3.0
2017-Jan-08 14:33N 47°01' W 002°52'3 2.8
2017-Jan-08 13:33N 47°02' W 002°56'3 3.0
2017-Jan-08 12:33N 47°04' W 003°00'3 3.0
2017-Jan-08 11:33N 47°07' W 003°02'2 1.8
2017-Jan-08 10:33N 47°08' W 003°04'3 3.2
2017-Jan-08 09:33N 47°05' W 003°03'3 2.9
2017-Jan-08 08:33N 47°02' W 002°60'2 1.5
2017-Jan-08 07:15N 47°02' W 003°03'2 3.2
2017-Jan-08 06:33N 46°60' W 003°02'3 2.8
2017-Jan-08 05:33N 46°59' W 002°58'3 3.2
2017-Jan-08 04:33N 46°59' W 002°53'2 1.9
2017-Jan-08 03:33N 47°01' W 002°51'3 2.9
2017-Jan-08 02:33N 47°03' W 002°54'3 2.8
2017-Jan-08 01:33N 47°04' W 002°58'3 3.0
2017-Jan-08 00:30N 47°04' W 003°02'2 2.6
2017-Jan-07 23:33N 47°02' W 003°03'3 3.0
2017-Jan-07 22:33N 46°59' W 003°01'3 2.8
2017-Jan-07 21:33N 46°57' W 002°58'3 3.0
2017-Jan-07 20:33N 46°57' W 002°54'11 4.6
2017-Jan-07 18:09N 46°47' W 003°01'8 2.9
2017-Jan-07 15:33N 46°49' W 003°12'4 1.8
2017-Jan-07 13:26N 46°50' W 003°17'6 2.7
2017-Jan-07 11:05N 46°48' W 003°09'2 3.2
2017-Jan-07 10:30N 46°48' W 003°06'3 2.9
2017-Jan-07 09:30N 46°46' W 003°03'3 3.0
2017-Jan-07 08:33N 46°44' W 002°59'8 2.5
2017-Jan-07 05:27N 46°39' W 002°51'3 2.9
2017-Jan-07 04:32N 46°41' W 002°53'3 2.7
2017-Jan-07 03:32N 46°43' W 002°50'4 1.7
2017-Jan-07 01:21N 46°40' W 002°52'2 2.8
2017-Jan-07 00:29N 46°42' W 002°53'3 2.6
2017-Jan-06 23:31N 46°43' W 002°49'2 0.7
2017-Jan-06 20:25N 46°42' W 002°53'2 2.4
2017-Jan-06 19:25N 46°41' W 002°50'2 1.2
2017-Jan-06 17:30N 46°42' W 002°53'2 2.3
2017-Jan-06 16:29N 46°41' W 002°50'1 1.1
2017-Jan-06 15:33N 46°42' W 002°49'7 3.0
2017-Jan-06 13:15N 46°37' W 002°42'3 3.2
2017-Jan-06 12:25N 46°35' W 002°39'  

Dump ship's entire track history